createdAt,value
2018-04-05T00:02:19.448Z,99.90
2018-04-05T00:04:48.720Z,99.90
2018-04-05T00:07:18.002Z,99.90
2018-04-05T00:09:47.268Z,99.90
2018-04-05T00:12:16.572Z,99.90
2018-04-05T00:14:45.807Z,99.90
2018-04-05T00:17:15.079Z,99.90
2018-04-05T00:19:45.104Z,99.90
2018-04-05T00:22:14.425Z,99.90
2018-04-05T00:24:43.675Z,99.90
2018-04-05T00:27:12.942Z,99.90
2018-04-05T00:29:42.225Z,99.90
2018-04-05T00:32:12.239Z,99.90
2018-04-05T00:34:41.497Z,99.90
2018-04-05T00:37:10.768Z,99.90
2018-04-05T00:39:40.734Z,99.90
2018-04-05T00:42:10.018Z,99.90
2018-04-05T00:44:39.272Z,99.90
2018-04-05T00:47:08.543Z,99.90
2018-04-05T00:49:37.796Z,99.90
2018-04-05T00:52:07.037Z,99.90
2018-04-05T00:54:37.073Z,99.90
2018-04-05T00:57:07.440Z,99.90
2018-04-05T00:59:36.701Z,99.90
2018-04-05T01:02:05.969Z,99.90
2018-04-05T01:04:35.578Z,99.90
2018-04-05T01:07:04.965Z,99.90
2018-04-05T01:09:34.200Z,99.90
2018-04-05T01:12:03.468Z,99.90
2018-04-05T01:14:32.718Z,99.90
2018-04-05T01:17:02.818Z,99.90
2018-04-05T01:19:33.464Z,99.90
2018-04-05T01:22:02.729Z,99.90
2018-04-05T01:24:31.974Z,99.90
2018-04-05T01:27:02.016Z,99.90
2018-04-05T01:29:31.283Z,99.90
2018-04-05T01:32:00.570Z,99.90
2018-04-05T01:34:29.841Z,99.90
2018-04-05T01:36:59.114Z,99.90
2018-04-05T01:39:28.323Z,99.90
2018-04-05T01:41:57.569Z,99.90
2018-04-05T01:44:29.154Z,99.90
2018-04-05T01:46:58.409Z,99.90
2018-04-05T01:49:29.182Z,99.90
2018-04-05T01:51:58.464Z,99.90
2018-04-05T01:54:27.713Z,99.90
2018-04-05T01:56:56.964Z,99.90
2018-04-05T01:59:26.218Z,99.90
2018-04-05T02:01:55.483Z,99.90
2018-04-05T02:04:24.786Z,99.90
2018-04-05T02:06:54.078Z,99.90
2018-04-05T02:09:23.330Z,99.90
2018-04-05T02:11:52.597Z,99.90
2018-04-05T02:14:22.646Z,99.90
2018-04-05T02:16:52.157Z,99.90
2018-04-05T02:19:22.882Z,99.90
2018-04-05T02:21:52.197Z,99.90
2018-04-05T02:24:21.401Z,99.90
2018-04-05T02:26:50.675Z,99.90
2018-04-05T02:29:20.682Z,99.90
2018-04-05T02:31:50.050Z,99.90
2018-04-05T02:34:19.358Z,99.90
2018-04-05T02:36:49.406Z,99.90
2018-04-05T02:39:19.442Z,99.90
2018-04-05T02:41:48.722Z,99.90
2018-04-05T02:44:17.974Z,99.90
2018-04-05T02:46:47.302Z,99.90
2018-04-05T02:49:17.329Z,99.90
2018-04-05T02:51:46.662Z,99.90
2018-04-05T02:54:15.892Z,99.90
2018-04-05T02:56:45.153Z,99.90
2018-04-05T02:59:14.404Z,99.90
2018-04-05T03:01:43.767Z,99.90
2018-04-05T03:04:13.767Z,99.90
2018-04-05T03:06:43.014Z,99.90
2018-04-05T03:09:12.259Z,99.90
2018-04-05T03:11:42.295Z,99.90
2018-04-05T03:14:11.546Z,99.90
2018-04-05T03:16:40.821Z,99.90
2018-04-05T03:19:10.273Z,99.90
2018-04-05T03:21:39.527Z,99.90
2018-04-05T03:24:08.898Z,99.90
2018-04-05T03:26:38.899Z,99.90
2018-04-05T03:29:08.167Z,99.90
2018-04-05T03:31:37.417Z,99.90
2018-04-05T03:34:06.713Z,99.90
2018-04-05T03:36:36.109Z,99.90
2018-04-05T03:39:06.694Z,99.90
2018-04-05T03:41:36.175Z,99.90
2018-04-05T03:44:05.455Z,99.90
2018-04-05T03:46:34.721Z,99.90
2018-04-05T03:49:03.985Z,99.90
2018-04-05T03:51:33.230Z,99.90
2018-04-05T03:54:02.483Z,99.90
2018-04-05T03:56:31.721Z,99.90
2018-04-05T03:59:00.967Z,99.90
2018-04-05T04:01:30.237Z,99.90
2018-04-05T04:03:59.487Z,99.90
2018-04-05T04:06:28.868Z,99.90
2018-04-05T04:08:58.890Z,99.90
2018-04-05T04:11:28.116Z,99.90
2018-04-05T04:13:57.410Z,99.90
2018-04-05T04:16:26.672Z,99.90
2018-04-05T04:18:56.692Z,99.90
2018-04-05T04:21:25.952Z,99.90
2018-04-05T04:23:55.193Z,99.90
2018-04-05T04:26:25.377Z,99.90
2018-04-05T04:28:54.651Z,99.90
2018-04-05T04:31:23.927Z,99.90
2018-04-05T04:33:53.929Z,99.90
2018-04-05T04:36:23.270Z,99.90
2018-04-05T04:38:52.528Z,99.90
2018-04-05T04:41:21.801Z,99.90
2018-04-05T04:43:51.863Z,99.90
2018-04-05T04:46:21.877Z,99.90
2018-04-05T04:48:51.268Z,99.90
2018-04-05T04:51:21.282Z,99.90
2018-04-05T04:53:50.702Z,99.90
2018-04-05T04:56:20.713Z,99.90
2018-04-05T04:58:50.737Z,99.90
2018-04-05T05:01:20.738Z,99.90
2018-04-05T05:03:49.986Z,99.90
2018-04-05T05:06:19.252Z,99.90
2018-04-05T05:08:49.333Z,99.90
2018-04-05T05:11:18.611Z,99.90
2018-04-05T05:13:47.834Z,99.90
2018-04-05T05:16:17.106Z,99.90
2018-04-05T05:18:46.347Z,99.90
2018-04-05T05:21:15.586Z,99.90
2018-04-05T05:23:44.854Z,99.90
2018-04-05T05:26:14.155Z,99.90
2018-04-05T05:28:43.410Z,99.90
2018-04-05T05:31:12.711Z,99.90
2018-04-05T05:33:41.981Z,99.90
2018-04-05T05:36:12.023Z,99.90
2018-04-05T05:38:41.381Z,99.90
2018-04-05T05:41:10.743Z,99.90
2018-04-05T05:43:39.973Z,99.90
2018-04-05T05:46:09.262Z,99.90
2018-04-05T05:48:38.501Z,99.90
2018-04-05T05:51:07.968Z,99.90
2018-04-05T05:53:37.249Z,99.90
2018-04-05T05:56:06.533Z,99.90
2018-04-05T05:58:35.802Z,99.90
2018-04-05T06:01:05.041Z,99.90
2018-04-05T06:03:34.313Z,99.90
2018-04-05T06:06:03.566Z,99.90
2018-04-05T06:08:33.069Z,99.90
2018-04-05T06:11:02.546Z,99.90
2018-04-05T06:13:31.810Z,99.90
2018-04-05T06:16:01.059Z,99.90
2018-04-05T06:18:30.325Z,99.90
2018-04-05T06:20:59.598Z,99.90
2018-04-05T06:23:28.857Z,99.90
2018-04-05T06:25:58.157Z,99.90
2018-04-05T06:28:27.446Z,99.90
2018-04-05T06:30:57.548Z,99.90
2018-04-05T06:33:26.805Z,99.90
2018-04-05T06:35:56.075Z,99.90
2018-04-05T06:38:25.362Z,99.90
2018-04-05T06:40:54.648Z,99.90
2018-04-05T06:43:23.878Z,99.90
2018-04-05T06:45:53.125Z,99.90
2018-04-05T06:48:22.393Z,99.90
2018-04-05T06:50:51.706Z,99.90
2018-04-05T06:53:21.028Z,99.90
2018-04-05T06:55:50.351Z,99.90
2018-04-05T06:58:19.627Z,99.90
2018-04-05T07:00:48.910Z,99.90
2018-04-05T07:03:18.175Z,99.90
2018-04-05T07:05:47.454Z,99.90
2018-04-05T07:08:16.771Z,99.90
2018-04-05T07:10:46.037Z,99.90
2018-04-05T07:13:16.031Z,99.90
2018-04-05T07:15:45.274Z,99.90
2018-04-05T07:18:14.570Z,99.90
2018-04-05T07:20:43.809Z,99.90
2018-04-05T07:23:13.075Z,99.90
2018-04-05T07:25:42.345Z,99.90
2018-04-05T07:28:11.617Z,99.10
2018-04-05T07:30:40.870Z,96.90
2018-04-05T07:33:10.164Z,93.60
2018-04-05T07:35:39.423Z,93.00
2018-04-05T07:38:08.695Z,94.00
2018-04-05T07:40:38.745Z,95.20
2018-04-05T07:43:08.005Z,95.20
2018-04-05T07:45:37.282Z,96.30
2018-04-05T07:48:06.534Z,96.60
2018-04-05T07:50:35.779Z,97.20
2018-04-05T07:53:05.070Z,97.10
2018-04-05T07:55:34.350Z,96.20
2018-04-05T07:58:03.669Z,95.90
2018-04-05T08:00:32.936Z,96.20
2018-04-05T08:03:02.206Z,97.00
2018-04-05T08:05:31.899Z,97.40
2018-04-05T08:08:01.129Z,97.30
2018-04-05T08:10:31.177Z,96.80
2018-04-05T08:13:00.437Z,96.80
2018-04-05T08:15:29.731Z,96.90
2018-04-05T08:17:58.983Z,97.20
2018-04-05T08:20:28.267Z,96.90
2018-04-05T08:22:57.524Z,97.60
2018-04-05T08:25:26.815Z,98.70
2018-04-05T08:27:56.282Z,99.90
2018-04-05T08:30:25.593Z,99.90
2018-04-05T08:32:54.884Z,99.90
2018-04-05T08:35:24.138Z,99.90
2018-04-05T08:37:53.451Z,99.90
2018-04-05T08:40:22.695Z,99.90
2018-04-05T08:42:51.965Z,99.90
2018-04-05T08:45:21.205Z,99.90
2018-04-05T08:47:50.494Z,99.90
2018-04-05T08:50:19.744Z,99.90
2018-04-05T08:52:49.005Z,99.90
2018-04-05T08:55:18.283Z,99.90
2018-04-05T08:57:47.526Z,99.90
2018-04-05T09:00:17.519Z,99.90
2018-04-05T09:02:46.770Z,99.60
2018-04-05T09:05:16.017Z,99.10
2018-04-05T09:07:45.285Z,98.90
2018-04-05T09:10:14.523Z,97.70
2018-04-05T09:12:43.790Z,96.30
2018-04-05T09:15:13.823Z,93.30
2018-04-05T09:17:43.082Z,93.30
2018-04-05T09:20:12.369Z,92.80
2018-04-05T09:22:41.633Z,92.40
2018-04-05T09:25:10.931Z,92.30
2018-04-05T09:27:40.935Z,88.30
2018-04-05T09:30:10.221Z,88.20
2018-04-05T09:32:39.516Z,85.10
2018-04-05T09:35:08.762Z,73.90
2018-04-05T09:37:38.022Z,68.20
2018-04-05T09:40:09.474Z,71.40
2018-04-05T09:42:38.892Z,72.60
2018-04-05T09:45:08.130Z,66.50
2018-04-05T09:47:37.401Z,62.80
2018-04-05T09:50:06.807Z,67.50
2018-04-05T09:52:36.824Z,73.00
2018-04-05T09:55:06.090Z,73.00
2018-04-05T09:57:35.487Z,81.50
2018-04-05T10:00:04.774Z,83.80
2018-04-05T10:02:46.792Z,85.50
2018-04-05T10:05:16.769Z,85.50
2018-04-05T10:07:46.038Z,88.70
2018-04-05T10:10:16.052Z,90.20
2018-04-05T10:12:45.319Z,90.20
2018-04-05T10:15:14.572Z,89.40
2018-04-05T10:17:43.847Z,90.90
2018-04-05T10:20:13.119Z,89.20
2018-04-05T10:22:42.378Z,89.90
2018-04-05T10:25:11.642Z,82.50
2018-04-05T10:27:40.903Z,78.30
2018-04-05T10:30:10.190Z,79.60
2018-04-05T10:32:39.571Z,79.50
2018-04-05T10:35:08.761Z,81.00
2018-04-05T10:37:37.980Z,81.70
2018-04-05T10:40:07.362Z,79.20
2018-04-05T10:42:37.393Z,79.10
2018-04-05T10:45:06.645Z,79.00
2018-04-05T10:47:35.923Z,79.00
2018-04-05T10:50:06.079Z,75.90
2018-04-05T10:52:35.343Z,72.90
2018-04-05T10:55:04.595Z,70.30
2018-04-05T10:57:33.839Z,71.30
2018-04-05T11:00:03.102Z,71.40
2018-04-05T11:02:32.390Z,72.70
2018-04-05T11:05:02.435Z,66.30
2018-04-05T11:07:32.470Z,65.50
2018-04-05T11:10:01.731Z,65.60
2018-04-05T11:12:32.605Z,66.50
2018-04-05T11:15:02.684Z,66.80
2018-04-05T11:17:31.978Z,66.80
2018-04-05T11:20:01.251Z,65.00
2018-04-05T11:22:30.502Z,64.80
2018-04-05T11:25:01.289Z,68.00
2018-04-05T11:27:30.559Z,68.00
2018-04-05T11:29:59.863Z,66.70
2018-04-05T11:32:29.148Z,60.30
2018-04-05T11:34:58.396Z,60.10
2018-04-05T11:37:27.679Z,58.50
2018-04-05T11:39:56.935Z,59.30
2018-04-05T11:42:26.994Z,61.70
2018-04-05T11:44:56.222Z,61.40
2018-04-05T11:47:25.506Z,61.80
2018-04-05T11:49:54.758Z,60.10
2018-04-05T11:52:24.013Z,62.20
2018-04-05T11:54:53.286Z,62.90
2018-04-05T11:57:23.289Z,58.30
2018-04-05T11:59:53.388Z,56.50
2018-04-05T12:02:22.626Z,56.40
2018-04-05T12:04:52.033Z,57.00
2018-04-05T12:07:22.050Z,57.50
2018-04-05T12:09:51.326Z,57.50
2018-04-05T12:12:20.575Z,56.90
2018-04-05T12:14:49.846Z,58.10
2018-04-05T12:17:19.131Z,59.50
2018-04-05T12:19:48.497Z,56.60
2018-04-05T12:22:17.766Z,56.90
2018-04-05T12:24:47.005Z,59.10
2018-04-05T12:27:16.293Z,63.10
2018-04-05T12:29:45.551Z,66.90
2018-04-05T12:32:14.802Z,71.50
2018-04-05T12:34:44.196Z,74.00
2018-04-05T12:37:13.448Z,81.20
2018-04-05T12:39:42.876Z,77.00
2018-04-05T12:42:12.123Z,78.70
2018-04-05T12:44:41.570Z,72.90
2018-04-05T12:47:11.017Z,73.80
2018-04-05T12:49:40.278Z,73.00
2018-04-05T12:52:09.533Z,73.90
2018-04-05T12:54:38.835Z,73.20
2018-04-05T12:57:08.109Z,75.70
2018-04-05T12:59:37.431Z,73.40
2018-04-05T13:02:06.642Z,75.60
2018-04-05T13:04:35.891Z,74.90
2018-04-05T13:07:05.390Z,74.70
2018-04-05T13:09:34.642Z,76.70
2018-04-05T13:12:03.925Z,76.90
2018-04-05T13:14:33.169Z,77.50
2018-04-05T13:17:02.442Z,76.10
2018-04-05T13:19:31.775Z,77.80
2018-04-05T13:22:01.030Z,75.80
2018-04-05T13:24:30.291Z,75.00
2018-04-05T13:26:59.542Z,76.60
2018-04-05T13:29:28.807Z,85.10
2018-04-05T13:31:58.053Z,89.90
2018-04-05T13:34:27.322Z,90.10
2018-04-05T13:36:56.576Z,93.10
2018-04-05T13:39:26.633Z,93.60
2018-04-05T13:41:55.889Z,93.70
2018-04-05T13:44:25.129Z,92.70
2018-04-05T13:46:54.403Z,93.40
2018-04-05T13:49:24.411Z,92.30
2018-04-05T13:51:54.533Z,92.50
2018-04-05T13:54:23.798Z,92.40
2018-04-05T13:56:53.056Z,91.70
2018-04-05T13:59:22.332Z,89.70
2018-04-05T14:01:51.584Z,90.00
2018-04-05T14:04:20.862Z,90.00
2018-04-05T14:06:50.113Z,90.20
2018-04-05T14:09:19.381Z,88.60
2018-04-05T14:11:48.664Z,88.00
2018-04-05T14:14:18.675Z,83.60
2018-04-05T14:16:47.921Z,83.60
2018-04-05T14:19:17.214Z,83.20
2018-04-05T14:21:46.483Z,82.00
2018-04-05T14:24:15.735Z,81.50
2018-04-05T14:26:45.026Z,81.60
2018-04-05T14:29:14.249Z,79.60
2018-04-05T14:31:43.494Z,76.30
2018-04-05T14:34:12.762Z,77.30
2018-04-05T14:36:42.789Z,78.60
2018-04-05T14:39:12.060Z,78.40
2018-04-05T14:41:41.496Z,78.20
2018-04-05T14:44:10.771Z,76.30
2018-04-05T14:46:40.039Z,78.90
2018-04-05T14:49:09.326Z,77.50
2018-04-05T14:51:38.810Z,78.90
2018-04-05T14:54:09.554Z,77.70
2018-04-05T14:56:38.926Z,77.70
2018-04-05T14:59:08.185Z,77.60
2018-04-05T15:01:37.436Z,76.70
2018-04-05T15:04:06.713Z,74.20
2018-04-05T15:06:37.488Z,76.80
2018-04-05T15:09:06.763Z,77.50
2018-04-05T15:11:37.546Z,73.70
2018-04-05T15:14:06.794Z,73.70
2018-04-05T15:16:36.040Z,75.80
2018-04-05T15:19:05.306Z,74.20
2018-04-05T15:21:35.359Z,74.20
2018-04-05T15:24:04.628Z,74.10
2018-04-05T15:26:33.911Z,73.80
2018-04-05T15:29:03.174Z,72.20
2018-04-05T15:31:32.425Z,74.80
2018-04-05T15:34:01.706Z,75.70
2018-04-05T15:36:31.210Z,78.50
2018-04-05T15:39:00.718Z,79.20
2018-04-05T15:41:29.993Z,80.30
2018-04-05T15:43:59.247Z,81.00
2018-04-05T15:46:28.697Z,82.40
2018-04-05T15:48:57.959Z,83.80
2018-04-05T15:51:27.998Z,83.70
2018-04-05T15:53:57.262Z,84.80
2018-04-05T15:56:26.542Z,83.00
2018-04-05T15:58:56.639Z,84.40
2018-04-05T16:01:25.894Z,84.60
2018-04-05T16:03:55.936Z,84.50
2018-04-05T16:06:25.185Z,85.40
2018-04-05T16:08:54.459Z,83.10
2018-04-05T16:11:23.686Z,82.80
2018-04-05T16:13:52.949Z,82.00
2018-04-05T16:16:22.217Z,82.30
2018-04-05T16:18:51.453Z,83.30
2018-04-05T16:21:20.737Z,80.70
2018-04-05T16:23:50.856Z,82.50
2018-04-05T16:26:20.144Z,82.40
2018-04-05T16:28:50.188Z,82.70
2018-04-05T16:31:19.434Z,82.70
2018-04-05T16:33:48.853Z,82.40
2018-04-05T16:36:18.132Z,82.90
2018-04-05T16:38:47.851Z,84.00
2018-04-05T16:41:17.077Z,81.70
2018-04-05T16:43:46.482Z,81.00
2018-04-05T16:46:16.543Z,82.90
2018-04-05T16:48:45.796Z,82.80
2018-04-05T16:51:15.045Z,80.00
2018-04-05T16:53:44.380Z,79.70
2018-04-05T16:56:13.607Z,78.10
2018-04-05T16:58:43.631Z,77.30
2018-04-05T17:01:12.882Z,77.30
2018-04-05T17:03:42.148Z,76.50
2018-04-05T17:06:11.394Z,77.40
2018-04-05T17:08:40.624Z,79.10
2018-04-05T17:11:09.901Z,77.20
2018-04-05T17:13:39.179Z,78.60
2018-04-05T17:16:09.012Z,78.50
2018-04-05T17:18:39.272Z,79.20
2018-04-05T17:21:08.638Z,79.10
2018-04-05T17:23:37.905Z,80.40
2018-04-05T17:26:07.146Z,80.60
2018-04-05T17:28:37.148Z,79.50
2018-04-05T17:31:06.399Z,81.70
2018-04-05T17:33:35.801Z,82.60
2018-04-05T17:36:05.815Z,82.20
2018-04-05T17:38:35.086Z,82.10
2018-04-05T17:41:04.347Z,81.90
2018-04-05T17:43:33.622Z,82.80
2018-04-05T17:46:03.713Z,84.30
2018-04-05T17:48:33.001Z,84.30
2018-04-05T17:51:02.252Z,85.60
2018-04-05T17:53:31.629Z,86.70
2018-04-05T17:56:01.667Z,85.20
2018-04-05T17:58:30.939Z,85.00
2018-04-05T18:01:00.207Z,86.80
2018-04-05T18:03:29.426Z,86.70
2018-04-05T18:05:58.668Z,88.10
2018-04-05T18:08:27.952Z,87.70
2018-04-05T18:10:58.005Z,89.60
2018-04-05T18:13:27.242Z,90.10
2018-04-05T18:15:56.522Z,90.10
2018-04-05T18:18:25.774Z,90.30
2018-04-05T18:20:55.063Z,90.60
2018-04-05T18:23:24.328Z,91.10
2018-04-05T18:25:54.354Z,92.50
2018-04-05T18:28:23.856Z,92.50
2018-04-05T18:30:53.116Z,92.40
2018-04-05T18:33:22.396Z,93.20
2018-04-05T18:35:52.434Z,94.40
2018-04-05T18:38:23.162Z,94.40
2018-04-05T18:40:53.297Z,95.50
2018-04-05T18:43:23.314Z,95.50
2018-04-05T18:45:52.584Z,95.50
2018-04-05T18:48:21.850Z,95.50
2018-04-05T18:50:51.118Z,96.00
2018-04-05T18:53:21.180Z,96.50
2018-04-05T18:55:51.462Z,96.50
2018-04-05T18:58:20.702Z,96.80
2018-04-05T19:00:50.163Z,97.10
2018-04-05T19:03:19.373Z,97.50
2018-04-05T19:05:48.635Z,98.30
2018-04-05T19:08:19.058Z,98.20
2018-04-05T19:10:49.829Z,98.50
2018-04-05T19:13:19.114Z,98.50
2018-04-05T19:15:48.507Z,98.70
2018-04-05T19:18:17.778Z,98.80
2018-04-05T19:20:47.030Z,98.90
2018-04-05T19:23:16.331Z,99.40
2018-04-05T19:25:45.592Z,99.90
2018-04-05T19:28:14.853Z,99.90
2018-04-05T19:30:44.104Z,99.90
2018-04-05T19:33:13.476Z,99.90
2018-04-05T19:35:42.777Z,99.90
2018-04-05T19:38:12.037Z,99.90
2018-04-05T19:40:41.299Z,99.90
2018-04-05T19:43:10.597Z,99.90
2018-04-05T19:45:39.914Z,99.90
2018-04-05T19:48:09.227Z,99.90
2018-04-05T19:50:38.632Z,99.90
2018-04-05T19:53:07.866Z,99.90
2018-04-05T19:55:37.166Z,99.90
2018-04-05T19:58:06.457Z,99.90
2018-04-05T20:00:35.730Z,99.90
2018-04-05T20:03:04.996Z,99.90
2018-04-05T20:05:34.268Z,99.90
2018-04-05T20:08:03.624Z,99.90
2018-04-05T20:10:32.828Z,99.90
2018-04-05T20:13:02.078Z,99.90
2018-04-05T20:15:31.335Z,99.90
2018-04-05T20:18:00.603Z,99.90
2018-04-05T20:20:30.184Z,99.90
2018-04-05T20:22:59.422Z,99.90
2018-04-05T20:25:28.740Z,99.90
2018-04-05T20:27:58.012Z,99.90
2018-04-05T20:30:27.376Z,99.90
2018-04-05T20:32:57.389Z,99.90
2018-04-05T20:35:26.638Z,99.90
2018-04-05T20:37:55.907Z,99.90
2018-04-05T20:40:25.139Z,99.90
2018-04-05T20:42:54.409Z,99.90
2018-04-05T20:45:23.719Z,99.90
2018-04-05T20:47:52.926Z,99.90
2018-04-05T20:50:22.192Z,99.90
2018-04-05T20:52:51.475Z,99.90
2018-04-05T20:55:21.514Z,99.90
2018-04-05T20:57:50.778Z,99.90
2018-04-05T21:00:20.034Z,99.90
2018-04-05T21:02:49.417Z,99.90
2018-04-05T21:05:18.672Z,99.90
2018-04-05T21:07:47.916Z,99.90
2018-04-05T21:10:17.952Z,99.90
2018-04-05T21:12:47.176Z,99.90
2018-04-05T21:15:17.346Z,99.90
2018-04-05T21:17:46.634Z,99.90
2018-04-05T21:20:15.878Z,99.90
2018-04-05T21:22:45.170Z,99.90
2018-04-05T21:25:14.488Z,99.90
2018-04-05T21:27:44.148Z,99.90
2018-04-05T21:30:13.398Z,99.90
2018-04-05T21:32:42.665Z,99.90
2018-04-05T21:35:11.974Z,99.90
2018-04-05T21:37:41.181Z,99.90
2018-04-05T21:40:11.214Z,99.90
2018-04-05T21:42:40.459Z,99.90
2018-04-05T21:45:09.719Z,99.90
2018-04-05T21:47:38.960Z,99.90
2018-04-05T21:50:08.229Z,99.90
2018-04-05T21:52:37.599Z,99.90
2018-04-05T21:55:07.643Z,99.90
2018-04-05T21:57:36.913Z,99.90
2018-04-05T22:00:10.434Z,99.90
2018-04-05T22:02:39.746Z,99.90
2018-04-05T22:05:09.009Z,99.90
2018-04-05T22:07:39.060Z,99.90
2018-04-05T22:10:08.302Z,99.90
2018-04-05T22:12:37.572Z,99.90
2018-04-05T22:15:06.822Z,99.90
2018-04-05T22:17:36.878Z,99.90
2018-04-05T22:20:06.148Z,99.90
2018-04-05T22:22:35.422Z,99.90
2018-04-05T22:25:04.689Z,99.90
2018-04-05T22:27:33.987Z,99.90
2018-04-05T22:30:03.259Z,99.90
2018-04-05T22:32:33.294Z,99.90
2018-04-05T22:35:02.620Z,99.90
2018-04-05T22:37:31.872Z,99.90
2018-04-05T22:40:01.146Z,99.90
2018-04-05T22:42:30.377Z,99.90
2018-04-05T22:44:59.801Z,99.90
2018-04-05T22:47:29.031Z,99.90
2018-04-05T22:49:58.298Z,99.90
2018-04-05T22:52:29.522Z,99.90
2018-04-05T22:54:58.754Z,99.90
2018-04-05T22:57:28.016Z,99.90
2018-04-05T22:59:57.268Z,99.90
2018-04-05T23:02:26.524Z,99.90
2018-04-05T23:04:55.802Z,99.90
2018-04-05T23:07:26.554Z,99.90
2018-04-05T23:09:55.805Z,99.90
2018-04-05T23:12:25.058Z,99.90
2018-04-05T23:14:55.168Z,99.90
2018-04-05T23:17:24.510Z,99.90
2018-04-05T23:19:53.772Z,99.90
2018-04-05T23:22:23.122Z,99.90
2018-04-05T23:24:52.367Z,99.90
2018-04-05T23:27:21.631Z,99.90
2018-04-05T23:29:50.880Z,99.90
2018-04-05T23:32:20.909Z,99.90
2018-04-05T23:34:50.961Z,99.90
2018-04-05T23:37:20.206Z,99.90
2018-04-05T23:39:49.468Z,99.90
2018-04-05T23:42:18.775Z,99.90
2018-04-05T23:44:48.041Z,99.90
2018-04-05T23:47:18.052Z,99.90
2018-04-05T23:49:47.319Z,99.90
2018-04-05T23:52:16.579Z,99.90
2018-04-05T23:54:45.813Z,99.90
2018-04-05T23:57:15.090Z,99.90
2018-04-05T23:59:44.526Z,99.90
